60TX weather

P-K Ranch Airport
Bellville, Texas, United States

Public forecast

Using degrees Fahrenheit for public forecast. Weather courtesy of forecast.io.

Closest aviation weather report (METAR) to P-K Ranch Airport

Closest report is Brenham Municipal Airport, 12.5 nm (23.2 km) NNW. Retrieved 2020/08/03 11:35 UTC (23 minutes ago):

K11R 031135Z AUTO 00000KT 7SM CLR 22/21 A3001 RMK AO2 T02150214

Closest aviation forecast (TAF) to P-K Ranch Airport

Closest forecast is Easterwood Field, 33.7 nm (62.5 km) N. Retrieved 2020/08/03 06:22 UTC (6 hours ago):

TAF KCLL 030520Z 0306/0406 VRB04KT P6SM SCT250 FM031500 26005KT P6SM FEW060 SCT250 FM031900 36006KT P6SM VCTS SCT060CB SCT250 FM040100 03005KT P6SM FEW070 SCT250